Esil, Kazakhstan
Current Conditions -  °F | °C
As of 6:00 AM on Wednesday 22 Oct 2014 (Local Time) from UAUU Reporting Station
Light Snow Light Snow  
Wind Chill: 24°   Ceiling: 500
Heat Index: 34°   Visibility: 6mi
Dew Point: 32°   Wind: 13mph
Humidity: 93%   Direction: 190°S
Pressure: 29.77"   Gusts: NA
Location:  51.96°N, 66.38°E
Report Text: UAUU 220000Z 19006MPS 9999 -SNRA OVC005 01/M00 Q1008 R15/590236NOSIG RMK QBB150 QFE740/0987
Loading
Personal Weather Stations






























Interactive Weather Map
Tropical Storm Tracking
New forecast layout! Learn more

10-Day Weather Forecast

Advertisements
Track Severe Weather on mobile